sensor_id;sensor_type;location;lat;lon;timestamp;pressure;altitude;pressure_sealevel;temperature;humidity
73821;BME280;62150;43.582;1.456;2022-09-02T06:02:25;99740.56;;;20.42;64.83
73821;BME280;62150;43.582;1.456;2022-09-02T06:04:53;99746.47;;;20.44;64.89
73821;BME280;62150;43.582;1.456;2022-09-02T06:07:22;99752.06;;;20.39;65.14
73821;BME280;62150;43.582;1.456;2022-09-02T06:09:50;99744.75;;;20.33;65.78
73821;BME280;62150;43.582;1.456;2022-09-02T06:12:19;99741.66;;;20.39;64.86
73821;BME280;62150;43.582;1.456;2022-09-02T06:14:47;99740.00;;;20.38;65.63
73821;BME280;62150;43.582;1.456;2022-09-02T06:17:15;99735.47;;;20.40;64.88
73821;BME280;62150;43.582;1.456;2022-09-02T06:19:44;99743.88;;;20.44;65.22
73821;BME280;62150;43.582;1.456;2022-09-02T06:22:12;99745.44;;;20.35;65.24
73821;BME280;62150;43.582;1.456;2022-09-02T06:24:39;99732.16;;;20.38;65.82
73821;BME280;62150;43.582;1.456;2022-09-02T06:27:07;99737.53;;;20.46;65.69
73821;BME280;62150;43.582;1.456;2022-09-02T06:29:34;99740.81;;;20.48;64.60
73821;BME280;62150;43.582;1.456;2022-09-02T06:32:03;99740.16;;;20.56;64.79
73821;BME280;62150;43.582;1.456;2022-09-02T06:34:30;99741.56;;;20.60;64.43
73821;BME280;62150;43.582;1.456;2022-09-02T06:36:59;99753.09;;;20.57;64.58
73821;BME280;62150;43.582;1.456;2022-09-02T06:39:27;99757.44;;;20.47;65.23
73821;BME280;62150;43.582;1.456;2022-09-02T06:41:54;99750.88;;;20.43;65.32
73821;BME280;62150;43.582;1.456;2022-09-02T06:44:22;99748.25;;;20.43;65.36
73821;BME280;62150;43.582;1.456;2022-09-02T06:46:54;99745.56;;;20.64;64.19
73821;BME280;62150;43.582;1.456;2022-09-02T06:49:22;99754.75;;;20.58;64.12
73821;BME280;62150;43.582;1.456;2022-09-02T06:51:53;99762.44;;;20.60;64.65
73821;BME280;62150;43.582;1.456;2022-09-02T06:54:23;99757.72;;;20.44;64.92
73821;BME280;62150;43.582;1.456;2022-09-02T06:56:52;99762.06;;;20.34;65.58
73821;BME280;62150;43.582;1.456;2022-09-02T06:59:23;99767.34;;;20.53;64.41
73821;BME280;62150;43.582;1.456;2022-09-02T07:01:51;99767.97;;;20.66;64.35
73821;BME280;62150;43.582;1.456;2022-09-02T07:04:18;99777.91;;;20.92;63.76
73821;BME280;62150;43.582;1.456;2022-09-02T07:07:05;99781.22;;;20.94;63.66
73821;BME280;62150;43.582;1.456;2022-09-02T07:09:34;99786.97;;;20.88;63.58
73821;BME280;62150;43.582;1.456;2022-09-02T07:12:03;99800.50;;;20.62;64.21
73821;BME280;62150;43.582;1.456;2022-09-02T07:14:34;99797.63;;;20.65;64.46
73821;BME280;62150;43.582;1.456;2022-09-02T07:17:02;99798.06;;;20.70;63.86
73821;BME280;62150;43.582;1.456;2022-09-02T07:19:30;99790.25;;;20.90;63.27
73821;BME280;62150;43.582;1.456;2022-09-02T07:21:57;99789.31;;;20.91;63.35
73821;BME280;62150;43.582;1.456;2022-09-02T07:24:25;99792.22;;;20.97;63.31
73821;BME280;62150;43.582;1.456;2022-09-02T07:26:55;99798.09;;;20.90;63.45
73821;BME280;62150;43.582;1.456;2022-09-02T07:29:23;99807.63;;;21.00;63.23
73821;BME280;62150;43.582;1.456;2022-09-02T07:31:50;99815.06;;;21.05;63.24
73821;BME280;62150;43.582;1.456;2022-09-02T07:34:18;99823.16;;;21.02;63.09
73821;BME280;62150;43.582;1.456;2022-09-02T07:36:46;99822.47;;;21.00;63.38
73821;BME280;62150;43.582;1.456;2022-09-02T07:39:15;99828.81;;;21.07;63.10
73821;BME280;62150;43.582;1.456;2022-09-02T07:41:48;99829.38;;;21.20;62.54
73821;BME280;62150;43.582;1.456;2022-09-02T07:44:19;99833.81;;;21.29;62.67
73821;BME280;62150;43.582;1.456;2022-09-02T07:46:47;99842.34;;;21.31;62.39
73821;BME280;62150;43.582;1.456;2022-09-02T07:49:16;99834.09;;;21.36;62.01
73821;BME280;62150;43.582;1.456;2022-09-02T07:51:47;99842.94;;;21.45;62.14
73821;BME280;62150;43.582;1.456;2022-09-02T07:54:16;99852.13;;;21.49;61.91
73821;BME280;62150;43.582;1.456;2022-09-02T07:56:44;99859.16;;;21.48;62.40
73821;BME280;62150;43.582;1.456;2022-09-02T07:59:12;99850.91;;;21.72;61.67
73821;BME280;62150;43.582;1.456;2022-09-02T08:01:41;99852.84;;;21.70;61.87
73821;BME280;62150;43.582;1.456;2022-09-02T08:04:09;99851.44;;;21.85;61.63
73821;BME280;62150;43.582;1.456;2022-09-02T08:06:38;99848.44;;;21.80;61.46
73821;BME280;62150;43.582;1.456;2022-09-02T08:09:07;99852.00;;;22.08;61.54
73821;BME280;62150;43.582;1.456;2022-09-02T08:11:36;99849.19;;;22.29;60.13
73821;BME280;62150;43.582;1.456;2022-09-02T08:14:05;99852.78;;;22.28;60.57
73821;BME280;62150;43.582;1.456;2022-09-02T08:16:33;99845.59;;;22.30;59.80
73821;BME280;62150;43.582;1.456;2022-09-02T08:19:02;99843.16;;;21.99;61.06
73821;BME280;62150;43.582;1.456;2022-09-02T08:21:31;99843.75;;;22.13;60.71
73821;BME280;62150;43.582;1.456;2022-09-02T08:23:58;99850.44;;;22.34;59.96
73821;BME280;62150;43.582;1.456;2022-09-02T08:26:26;99845.53;;;22.12;61.09
73821;BME280;62150;43.582;1.456;2022-09-02T08:28:54;99857.66;;;22.13;61.19
73821;BME280;62150;43.582;1.456;2022-09-02T08:31:22;99843.47;;;22.16;61.31
73821;BME280;62150;43.582;1.456;2022-09-02T08:33:50;99842.03;;;22.31;60.90
73821;BME280;62150;43.582;1.456;2022-09-02T08:36:19;99832.38;;;22.31;60.37
73821;BME280;62150;43.582;1.456;2022-09-02T08:38:46;99843.28;;;22.64;60.33
73821;BME280;62150;43.582;1.456;2022-09-02T08:41:20;99837.22;;;23.00;59.69
73821;BME280;62150;43.582;1.456;2022-09-02T08:43:50;99828.78;;;23.06;59.00
73821;BME280;62150;43.582;1.456;2022-09-02T08:46:21;99833.78;;;23.00;59.60
73821;BME280;62150;43.582;1.456;2022-09-02T08:48:53;99827.13;;;23.23;58.83
73821;BME280;62150;43.582;1.456;2022-09-02T08:51:28;99825.28;;;23.33;58.69
73821;BME280;62150;43.582;1.456;2022-09-02T08:54:01;99834.16;;;23.23;58.57
73821;BME280;62150;43.582;1.456;2022-09-02T08:56:31;99835.91;;;23.14;57.65
73821;BME280;62150;43.582;1.456;2022-09-02T08:58:58;99834.50;;;22.92;58.25
73821;BME280;62150;43.582;1.456;2022-09-02T09:01:37;99834.72;;;22.71;58.90
73821;BME280;62150;43.582;1.456;2022-09-02T09:04:27;99837.34;;;22.81;59.78
73821;BME280;62150;43.582;1.456;2022-09-02T09:07:12;99830.31;;;22.72;59.07
73821;BME280;62150;43.582;1.456;2022-09-02T09:09:53;99835.53;;;22.82;59.39
73821;BME280;62150;43.582;1.456;2022-09-02T09:12:39;99831.06;;;22.92;59.02
73821;BME280;62150;43.582;1.456;2022-09-02T09:15:14;99831.88;;;22.92;58.35
73821;BME280;62150;43.582;1.456;2022-09-02T09:17:47;99835.81;;;22.79;59.59
73821;BME280;62150;43.582;1.456;2022-09-02T09:20:19;99837.47;;;22.80;59.91
73821;BME280;62150;43.582;1.456;2022-09-02T09:23:00;99841.97;;;22.50;59.42
73821;BME280;62150;43.582;1.456;2022-09-02T09:25:29;99845.50;;;22.96;58.53
73821;BME280;62150;43.582;1.456;2022-09-02T09:27:57;99843.53;;;23.08;58.22
73821;BME280;62150;43.582;1.456;2022-09-02T09:30:26;99850.56;;;23.07;58.12
73821;BME280;62150;43.582;1.456;2022-09-02T09:32:55;99854.00;;;23.08;58.26
73821;BME280;62150;43.582;1.456;2022-09-02T09:35:25;99852.00;;;23.19;57.46
73821;BME280;62150;43.582;1.456;2022-09-02T09:37:54;99853.88;;;23.54;57.38
73821;BME280;62150;43.582;1.456;2022-09-02T09:40:28;99854.53;;;23.74;55.75
73821;BME280;62150;43.582;1.456;2022-09-02T09:42:59;99852.25;;;23.44;56.46
73821;BME280;62150;43.582;1.456;2022-09-02T09:45:40;99842.22;;;23.57;56.71
73821;BME280;62150;43.582;1.456;2022-09-02T09:48:17;99846.06;;;23.62;55.68
73821;BME280;62150;43.582;1.456;2022-09-02T09:51:07;99839.56;;;23.92;55.91
73821;BME280;62150;43.582;1.456;2022-09-02T09:53:36;99823.03;;;24.18;54.90
73821;BME280;62150;43.582;1.456;2022-09-02T09:56:19;99830.00;;;24.27;54.53
73821;BME280;62150;43.582;1.456;2022-09-02T09:58:49;99827.84;;;23.79;55.10
73821;BME280;62150;43.582;1.456;2022-09-02T10:01:19;99822.75;;;23.77;54.75
73821;BME280;62150;43.582;1.456;2022-09-02T10:03:50;99820.19;;;24.11;55.14
73821;BME280;62150;43.582;1.456;2022-09-02T10:06:21;99812.94;;;24.31;54.63
73821;BME280;62150;43.582;1.456;2022-09-02T10:08:51;99809.81;;;24.27;54.24
73821;BME280;62150;43.582;1.456;2022-09-02T10:11:23;99800.38;;;24.43;53.15
73821;BME280;62150;43.582;1.456;2022-09-02T10:13:54;99808.72;;;24.38;52.84
73821;BME280;62150;43.582;1.456;2022-09-02T10:16:50;99804.25;;;24.30;54.04
73821;BME280;62150;43.582;1.456;2022-09-02T10:19:25;99801.81;;;24.71;53.42
73821;BME280;62150;43.582;1.456;2022-09-02T10:22:18;99806.19;;;24.96;52.46
73821;BME280;62150;43.582;1.456;2022-09-02T10:25:02;99801.69;;;24.81;52.48
73821;BME280;62150;43.582;1.456;2022-09-02T10:27:43;99791.13;;;24.64;52.09
73821;BME280;62150;43.582;1.456;2022-09-02T10:30:18;99791.22;;;24.89;52.74
73821;BME280;62150;43.582;1.456;2022-09-02T10:33:09;99784.41;;;25.20;51.43
73821;BME280;62150;43.582;1.456;2022-09-02T10:35:43;99790.00;;;25.25;51.35
73821;BME280;62150;43.582;1.456;2022-09-02T10:38:30;99780.63;;;25.15;50.93
73821;BME280;62150;43.582;1.456;2022-09-02T10:41:11;99787.84;;;25.37;50.54
73821;BME280;62150;43.582;1.456;2022-09-02T10:43:59;99784.38;;;25.12;51.09
73821;BME280;62150;43.582;1.456;2022-09-02T10:46:36;99781.47;;;25.48;49.92
73821;BME280;62150;43.582;1.456;2022-09-02T10:49:15;99772.78;;;25.63;49.96
73821;BME280;62150;43.582;1.456;2022-09-02T10:51:54;99771.22;;;26.01;48.92
73821;BME280;62150;43.582;1.456;2022-09-02T10:54:37;99758.44;;;25.74;49.17
73821;BME280;62150;43.582;1.456;2022-09-02T10:57:10;99758.38;;;26.15;49.16
73821;BME280;62150;43.582;1.456;2022-09-02T10:59:46;99758.03;;;26.18;47.86
73821;BME280;62150;43.582;1.456;2022-09-02T11:02:19;99751.19;;;25.92;48.48
73821;BME280;62150;43.582;1.456;2022-09-02T11:04:51;99758.22;;;26.00;48.74
73821;BME280;62150;43.582;1.456;2022-09-02T11:07:26;99745.41;;;26.52;48.33
73821;BME280;62150;43.582;1.456;2022-09-02T11:09:58;99746.56;;;26.81;47.55
73821;BME280;62150;43.582;1.456;2022-09-02T11:12:31;99740.75;;;26.62;47.26
73821;BME280;62150;43.582;1.456;2022-09-02T11:15:08;99740.28;;;26.59;47.54
73821;BME280;62150;43.582;1.456;2022-09-02T11:17:43;99734.28;;;26.34;48.18
73821;BME280;62150;43.582;1.456;2022-09-02T11:20:21;99729.88;;;26.18;47.97
73821;BME280;62150;43.582;1.456;2022-09-02T11:22:58;99725.53;;;25.94;48.60
73821;BME280;62150;43.582;1.456;2022-09-02T11:25:33;99727.22;;;26.34;48.30
73821;BME280;62150;43.582;1.456;2022-09-02T11:28:11;99714.91;;;26.19;48.42
73821;BME280;62150;43.582;1.456;2022-09-02T11:30:50;99717.22;;;26.14;48.57
73821;BME280;62150;43.582;1.456;2022-09-02T11:33:22;99722.72;;;26.43;47.83
73821;BME280;62150;43.582;1.456;2022-09-02T11:35:53;99714.00;;;26.74;47.78
73821;BME280;62150;43.582;1.456;2022-09-02T11:38:38;99716.56;;;26.59;47.02
73821;BME280;62150;43.582;1.456;2022-09-02T11:41:27;99714.25;;;26.64;47.30
73821;BME280;62150;43.582;1.456;2022-09-02T11:44:04;99717.44;;;26.51;47.89
73821;BME280;62150;43.582;1.456;2022-09-02T11:47:06;99707.25;;;26.71;47.08
73821;BME280;62150;43.582;1.456;2022-09-02T11:50:02;99706.66;;;26.92;46.63
73821;BME280;62150;43.582;1.456;2022-09-02T11:52:48;99706.16;;;26.96;46.61
73821;BME280;62150;43.582;1.456;2022-09-02T11:55:24;99685.09;;;27.34;46.63
73821;BME280;62150;43.582;1.456;2022-09-02T11:57:55;99687.81;;;27.41;46.33
73821;BME280;62150;43.582;1.456;2022-09-02T12:00:27;99687.50;;;27.21;45.88
73821;BME280;62150;43.582;1.456;2022-09-02T12:03:12;99684.88;;;26.98;46.04
73821;BME280;62150;43.582;1.456;2022-09-02T12:05:50;99679.25;;;27.01;46.08
73821;BME280;62150;43.582;1.456;2022-09-02T12:09:02;99673.19;;;27.53;45.49
73821;BME280;62150;43.582;1.456;2022-09-02T12:11:47;99678.00;;;27.49;44.93
73821;BME280;62150;43.582;1.456;2022-09-02T12:17:35;99668.41;;;27.86;44.42
73821;BME280;62150;43.582;1.456;2022-09-02T12:20:06;99665.81;;;28.07;44.55
73821;BME280;62150;43.582;1.456;2022-09-02T12:22:36;99667.56;;;28.15;44.10
73821;BME280;62150;43.582;1.456;2022-09-02T12:25:32;99680.31;;;28.11;43.94
73821;BME280;62150;43.582;1.456;2022-09-02T12:28:16;99669.91;;;28.10;44.18
73821;BME280;62150;43.582;1.456;2022-09-02T12:31:11;99677.13;;;28.30;43.57
73821;BME280;62150;43.582;1.456;2022-09-02T12:33:42;99681.19;;;28.48;43.65
73821;BME280;62150;43.582;1.456;2022-09-02T12:36:45;99676.97;;;28.53;43.45
73821;BME280;62150;43.582;1.456;2022-09-02T12:39:44;99687.50;;;28.32;42.80
73821;BME280;62150;43.582;1.456;2022-09-02T12:42:20;99681.75;;;28.14;43.53
73821;BME280;62150;43.582;1.456;2022-09-02T12:44:57;99667.84;;;28.77;43.39
73821;BME280;62150;43.582;1.456;2022-09-02T12:47:52;99667.22;;;28.54;43.52
73821;BME280;62150;43.582;1.456;2022-09-02T12:50:27;99665.63;;;28.09;43.37
73821;BME280;62150;43.582;1.456;2022-09-02T12:53:30;99659.47;;;28.01;44.05
73821;BME280;62150;43.582;1.456;2022-09-02T12:56:01;99652.44;;;28.23;42.99
73821;BME280;62150;43.582;1.456;2022-09-02T12:58:33;99651.44;;;28.10;43.58
73821;BME280;62150;43.582;1.456;2022-09-02T13:01:23;99643.88;;;28.36;43.78
73821;BME280;62150;43.582;1.456;2022-09-02T13:04:06;99644.28;;;28.03;44.53
73821;BME280;62150;43.582;1.456;2022-09-02T13:07:07;99638.22;;;28.39;44.33
73821;BME280;62150;43.582;1.456;2022-09-02T13:09:57;99630.09;;;28.41;43.26
73821;BME280;62150;43.582;1.456;2022-09-02T13:12:56;99633.59;;;28.26;44.22
73821;BME280;62150;43.582;1.456;2022-09-02T13:19:09;99615.06;;;28.84;43.05
73821;BME280;62150;43.582;1.456;2022-09-02T13:25:26;99609.72;;;28.34;42.60
73821;BME280;62150;43.582;1.456;2022-09-02T13:31:17;99614.16;;;28.77;41.34
73821;BME280;62150;43.582;1.456;2022-09-02T13:33:46;99617.38;;;29.43;40.93
73821;BME280;62150;43.582;1.456;2022-09-02T13:36:25;99604.50;;;29.67;40.09
73821;BME280;62150;43.582;1.456;2022-09-02T13:38:54;99600.41;;;29.65;40.16
73821;BME280;62150;43.582;1.456;2022-09-02T13:41:28;99603.59;;;28.77;40.75
73821;BME280;62150;43.582;1.456;2022-09-02T13:44:07;99599.66;;;28.66;42.04
73821;BME280;62150;43.582;1.456;2022-09-02T13:46:43;99592.84;;;28.99;40.29
73821;BME280;62150;43.582;1.456;2022-09-02T13:49:18;99583.25;;;29.26;40.62
73821;BME280;62150;43.582;1.456;2022-09-02T13:51:50;99579.78;;;29.26;39.37
73821;BME280;62150;43.582;1.456;2022-09-02T13:54:30;99582.00;;;28.94;40.03
73821;BME280;62150;43.582;1.456;2022-09-02T13:57:00;99575.84;;;29.15;39.41
73821;BME280;62150;43.582;1.456;2022-09-02T13:59:33;99573.09;;;28.74;40.98
73821;BME280;62150;43.582;1.456;2022-09-02T14:02:26;99569.13;;;28.85;41.13
73821;BME280;62150;43.582;1.456;2022-09-02T14:04:56;99568.94;;;28.86;40.21
73821;BME280;62150;43.582;1.456;2022-09-02T14:07:30;99559.41;;;28.92;40.15
73821;BME280;62150;43.582;1.456;2022-09-02T14:10:00;99559.13;;;28.59;40.64
73821;BME280;62150;43.582;1.456;2022-09-02T14:12:31;99562.25;;;28.48;41.29
73821;BME280;62150;43.582;1.456;2022-09-02T14:15:00;99553.56;;;28.54;40.53
73821;BME280;62150;43.582;1.456;2022-09-02T14:17:28;99558.72;;;29.11;40.04
73821;BME280;62150;43.582;1.456;2022-09-02T14:20:15;99559.94;;;28.59;40.46
73821;BME280;62150;43.582;1.456;2022-09-02T14:22:51;99568.09;;;28.86;39.69
73821;BME280;62150;43.582;1.456;2022-09-02T14:25:21;99565.53;;;28.92;39.91
73821;BME280;62150;43.582;1.456;2022-09-02T14:27:49;99559.34;;;28.85;41.15
73821;BME280;62150;43.582;1.456;2022-09-02T14:30:28;99556.44;;;28.80;40.76
73821;BME280;62150;43.582;1.456;2022-09-02T14:33:24;99555.91;;;28.63;40.80
73821;BME280;62150;43.582;1.456;2022-09-02T14:35:59;99540.28;;;28.47;41.59
73821;BME280;62150;43.582;1.456;2022-09-02T14:38:31;99536.84;;;28.68;41.78
73821;BME280;62150;43.582;1.456;2022-09-02T14:41:02;99534.94;;;28.62;40.76
73821;BME280;62150;43.582;1.456;2022-09-02T14:43:39;99534.69;;;28.57;41.49
73821;BME280;62150;43.582;1.456;2022-09-02T14:46:16;99538.41;;;28.62;40.80
73821;BME280;62150;43.582;1.456;2022-09-02T14:48:53;99534.84;;;28.77;40.33
73821;BME280;62150;43.582;1.456;2022-09-02T14:51:24;99535.47;;;29.00;39.46
73821;BME280;62150;43.582;1.456;2022-09-02T14:53:57;99536.88;;;28.96;40.11
73821;BME280;62150;43.582;1.456;2022-09-02T14:56:45;99537.28;;;28.50;41.08
73821;BME280;62150;43.582;1.456;2022-09-02T14:59:13;99548.66;;;28.72;40.22
73821;BME280;62150;43.582;1.456;2022-09-02T15:01:42;99532.38;;;28.96;40.13
73821;BME280;62150;43.582;1.456;2022-09-02T15:04:13;99532.75;;;28.65;40.21
73821;BME280;62150;43.582;1.456;2022-09-02T15:06:41;99540.25;;;28.41;40.83
73821;BME280;62150;43.582;1.456;2022-09-02T15:09:10;99535.91;;;28.54;41.47
73821;BME280;62150;43.582;1.456;2022-09-02T15:11:40;99537.41;;;28.42;40.78
73821;BME280;62150;43.582;1.456;2022-09-02T15:14:09;99536.03;;;28.46;41.07
73821;BME280;62150;43.582;1.456;2022-09-02T15:16:37;99527.47;;;28.65;40.49
73821;BME280;62150;43.582;1.456;2022-09-02T15:19:05;99527.13;;;28.75;40.67
73821;BME280;62150;43.582;1.456;2022-09-02T15:21:33;99530.75;;;29.30;40.02
73821;BME280;62150;43.582;1.456;2022-09-02T15:24:00;99531.91;;;29.21;39.59
73821;BME280;62150;43.582;1.456;2022-09-02T15:26:29;99539.38;;;29.39;39.26
73821;BME280;62150;43.582;1.456;2022-09-02T15:28:57;99536.97;;;29.44;39.44
73821;BME280;62150;43.582;1.456;2022-09-02T15:31:25;99536.22;;;29.56;40.33
73821;BME280;62150;43.582;1.456;2022-09-02T15:33:53;99529.78;;;29.79;39.32
73821;BME280;62150;43.582;1.456;2022-09-02T15:36:20;99526.25;;;30.13;38.73
73821;BME280;62150;43.582;1.456;2022-09-02T15:38:49;99527.59;;;29.13;40.81
73821;BME280;62150;43.582;1.456;2022-09-02T15:41:18;99526.78;;;29.41;39.88
73821;BME280;62150;43.582;1.456;2022-09-02T15:43:48;99520.72;;;29.53;40.09
73821;BME280;62150;43.582;1.456;2022-09-02T15:46:22;99517.34;;;29.73;40.36
73821;BME280;62150;43.582;1.456;2022-09-02T15:48:50;99518.84;;;29.41;39.39
73821;BME280;62150;43.582;1.456;2022-09-02T15:51:19;99515.69;;;28.96;40.40
73821;BME280;62150;43.582;1.456;2022-09-02T15:53:53;99512.19;;;28.89;40.45
73821;BME280;62150;43.582;1.456;2022-09-02T15:56:23;99503.16;;;29.05;39.91
73821;BME280;62150;43.582;1.456;2022-09-02T15:58:57;99508.38;;;29.32;39.80
73821;BME280;62150;43.582;1.456;2022-09-02T16:01:29;99499.75;;;29.17;39.96
73821;BME280;62150;43.582;1.456;2022-09-02T16:03:58;99488.16;;;29.59;39.62
73821;BME280;62150;43.582;1.456;2022-09-02T16:06:27;99485.16;;;29.82;38.78
73821;BME280;62150;43.582;1.456;2022-09-02T16:08:55;99479.69;;;29.90;38.81
73821;BME280;62150;43.582;1.456;2022-09-02T16:11:23;99490.56;;;29.41;39.88
73821;BME280;62150;43.582;1.456;2022-09-02T16:13:52;99491.69;;;28.69;40.24
73821;BME280;62150;43.582;1.456;2022-09-02T16:16:21;99479.00;;;28.58;40.86
73821;BME280;62150;43.582;1.456;2022-09-02T16:18:50;99481.50;;;28.39;40.67
73821;BME280;62150;43.582;1.456;2022-09-02T16:21:19;99474.84;;;28.49;41.10
73821;BME280;62150;43.582;1.456;2022-09-02T16:23:47;99479.19;;;28.29;40.73
73821;BME280;62150;43.582;1.456;2022-09-02T16:26:20;99479.56;;;28.26;40.78
73821;BME280;62150;43.582;1.456;2022-09-02T16:28:48;99486.28;;;28.28;40.77
73821;BME280;62150;43.582;1.456;2022-09-02T16:31:18;99475.03;;;28.41;41.32
73821;BME280;62150;43.582;1.456;2022-09-02T16:33:53;99484.28;;;28.58;41.43
73821;BME280;62150;43.582;1.456;2022-09-02T16:36:22;99496.63;;;28.51;40.78
73821;BME280;62150;43.582;1.456;2022-09-02T16:38:50;99487.13;;;28.57;40.27
73821;BME280;62150;43.582;1.456;2022-09-02T16:41:22;99485.69;;;28.82;38.88
73821;BME280;62150;43.582;1.456;2022-09-02T16:43:50;99485.03;;;28.80;39.46
73821;BME280;62150;43.582;1.456;2022-09-02T16:46:18;99491.56;;;29.12;39.19
73821;BME280;62150;43.582;1.456;2022-09-02T16:48:46;99490.81;;;29.18;38.45
73821;BME280;62150;43.582;1.456;2022-09-02T16:51:15;99494.47;;;29.17;38.58
73821;BME280;62150;43.582;1.456;2022-09-02T16:53:44;99486.41;;;28.69;39.48
73821;BME280;62150;43.582;1.456;2022-09-02T16:56:12;99491.97;;;28.11;40.26
73821;BME280;62150;43.582;1.456;2022-09-02T16:58:41;99494.03;;;28.15;40.69
73821;BME280;62150;43.582;1.456;2022-09-02T17:01:10;99503.69;;;28.01;41.27
73821;BME280;62150;43.582;1.456;2022-09-02T17:03:38;99496.00;;;28.07;40.61
73821;BME280;62150;43.582;1.456;2022-09-02T17:06:07;99485.50;;;28.13;40.82
73821;BME280;62150;43.582;1.456;2022-09-02T17:08:36;99486.13;;;28.15;40.63
73821;BME280;62150;43.582;1.456;2022-09-02T17:11:18;99492.16;;;27.88;41.13
73821;BME280;62150;43.582;1.456;2022-09-02T17:13:47;99491.69;;;27.84;41.87
73821;BME280;62150;43.582;1.456;2022-09-02T17:16:15;99494.06;;;27.79;42.07
73821;BME280;62150;43.582;1.456;2022-09-02T17:18:43;99494.81;;;27.73;42.73
73821;BME280;62150;43.582;1.456;2022-09-02T17:21:16;99489.66;;;27.65;42.77
73821;BME280;62150;43.582;1.456;2022-09-02T17:23:46;99490.69;;;27.64;42.37
73821;BME280;62150;43.582;1.456;2022-09-02T17:26:14;99495.38;;;27.54;43.02
73821;BME280;62150;43.582;1.456;2022-09-02T17:28:42;99486.19;;;27.50;42.65
73821;BME280;62150;43.582;1.456;2022-09-02T17:31:18;99481.19;;;27.55;43.07
73821;BME280;62150;43.582;1.456;2022-09-02T17:33:47;99484.00;;;27.53;42.57
73821;BME280;62150;43.582;1.456;2022-09-02T17:36:15;99475.97;;;27.25;42.98
73821;BME280;62150;43.582;1.456;2022-09-02T17:38:43;99471.22;;;27.35;43.24
73821;BME280;62150;43.582;1.456;2022-09-02T17:41:12;99471.72;;;27.46;43.40
73821;BME280;62150;43.582;1.456;2022-09-02T17:43:58;99465.50;;;27.32;43.15
73821;BME280;62150;43.582;1.456;2022-09-02T17:46:26;99472.47;;;27.40;42.79
73821;BME280;62150;43.582;1.456;2022-09-02T17:48:53;99461.78;;;27.26;43.28
73821;BME280;62150;43.582;1.456;2022-09-02T17:51:23;99466.41;;;27.10;42.99
73821;BME280;62150;43.582;1.456;2022-09-02T17:53:50;99475.84;;;27.04;43.39
73821;BME280;62150;43.582;1.456;2022-09-02T17:56:33;99475.84;;;27.04;43.02
73821;BME280;62150;43.582;1.456;2022-09-02T17:59:18;99469.97;;;27.02;42.71
73821;BME280;62150;43.582;1.456;2022-09-02T18:01:58;99467.53;;;27.00;43.59
73821;BME280;62150;43.582;1.456;2022-09-02T18:04:46;99469.34;;;27.00;43.94
73821;BME280;62150;43.582;1.456;2022-09-02T18:07:22;99471.03;;;26.93;44.04
73821;BME280;62150;43.582;1.456;2022-09-02T18:09:54;99462.47;;;26.91;44.19
73821;BME280;62150;43.582;1.456;2022-09-02T18:12:23;99465.66;;;26.86;43.29
73821;BME280;62150;43.582;1.456;2022-09-02T18:14:56;99470.47;;;26.83;43.78
73821;BME280;62150;43.582;1.456;2022-09-02T18:17:28;99464.91;;;26.78;43.47
73821;BME280;62150;43.582;1.456;2022-09-02T18:20:02;99469.25;;;26.70;43.26
73821;BME280;62150;43.582;1.456;2022-09-02T18:23:06;99464.81;;;26.71;43.81
73821;BME280;62150;43.582;1.456;2022-09-02T18:25:55;99468.72;;;26.60;43.89
73821;BME280;62150;43.582;1.456;2022-09-02T18:28:45;99476.97;;;26.57;44.81
73821;BME280;62150;43.582;1.456;2022-09-02T18:31:26;99475.13;;;26.43;45.26
73821;BME280;62150;43.582;1.456;2022-09-02T18:34:10;99475.47;;;26.40;45.57
73821;BME280;62150;43.582;1.456;2022-09-02T18:36:45;99471.72;;;26.34;45.78
73821;BME280;62150;43.582;1.456;2022-09-02T18:39:32;99471.84;;;26.18;46.90
73821;BME280;62150;43.582;1.456;2022-09-02T18:42:16;99482.84;;;25.99;47.95
73821;BME280;62150;43.582;1.456;2022-09-02T18:44:55;99493.81;;;26.02;47.65
73821;BME280;62150;43.582;1.456;2022-09-02T18:47:29;99504.69;;;25.99;47.45
73821;BME280;62150;43.582;1.456;2022-09-02T18:50:00;99513.97;;;25.95;47.59
73821;BME280;62150;43.582;1.456;2022-09-02T18:52:29;99526.13;;;25.96;47.51
73821;BME280;62150;43.582;1.456;2022-09-02T18:55:05;99542.28;;;25.93;47.54
73821;BME280;62150;43.582;1.456;2022-09-02T18:57:54;99552.66;;;25.87;47.76
73821;BME280;62150;43.582;1.456;2022-09-02T19:00:25;99562.38;;;25.86;48.27
73821;BME280;62150;43.582;1.456;2022-09-02T19:02:56;99567.56;;;25.63;48.44
73821;BME280;62150;43.582;1.456;2022-09-02T19:05:26;99579.41;;;25.59;48.92
73821;BME280;62150;43.582;1.456;2022-09-02T19:08:00;99584.84;;;25.50;49.32
73821;BME280;62150;43.582;1.456;2022-09-02T19:10:46;99591.44;;;25.46;48.75
73821;BME280;62150;43.582;1.456;2022-09-02T19:13:13;99595.06;;;25.36;50.07
73821;BME280;62150;43.582;1.456;2022-09-02T19:15:42;99599.66;;;25.34;49.55
73821;BME280;62150;43.582;1.456;2022-09-02T19:18:10;99604.97;;;25.26;50.13
73821;BME280;62150;43.582;1.456;2022-09-02T19:20:38;99607.28;;;25.21;50.20
73821;BME280;62150;43.582;1.456;2022-09-02T19:23:06;99614.66;;;25.18;50.81
73821;BME280;62150;43.582;1.456;2022-09-02T19:25:37;99621.06;;;25.23;50.58
73821;BME280;62150;43.582;1.456;2022-09-02T19:28:09;99621.88;;;24.99;52.15
73821;BME280;62150;43.582;1.456;2022-09-02T19:30:38;99622.53;;;24.93;51.59
73821;BME280;62150;43.582;1.456;2022-09-02T19:33:08;99632.91;;;24.95;51.32
73821;BME280;62150;43.582;1.456;2022-09-02T19:35:41;99636.47;;;24.78;51.83
73821;BME280;62150;43.582;1.456;2022-09-02T19:38:11;99647.16;;;24.84;52.28
73821;BME280;62150;43.582;1.456;2022-09-02T19:40:41;99658.00;;;24.89;52.00
73821;BME280;62150;43.582;1.456;2022-09-02T19:43:08;99662.09;;;24.84;52.75
73821;BME280;62150;43.582;1.456;2022-09-02T19:45:44;99658.16;;;24.80;52.38
73821;BME280;62150;43.582;1.456;2022-09-02T19:48:14;99670.31;;;24.81;52.32
73821;BME280;62150;43.582;1.456;2022-09-02T19:50:43;99673.59;;;24.83;52.30